createdAt,value
2023-10-25T00:00:57.895Z,11.687
2023-10-25T00:03:57.220Z,11.687
2023-10-25T00:06:57.647Z,11.687
2023-10-25T00:09:57.130Z,11.687
2023-10-25T00:12:56.801Z,11.687
2023-10-25T00:15:57.181Z,11.687
2023-10-25T00:18:57.767Z,11.687
2023-10-25T00:21:57.644Z,11.687
2023-10-25T00:24:57.637Z,11.687
2023-10-25T00:27:57.946Z,11.687
2023-10-25T00:30:57.683Z,11.687
2023-10-25T00:33:57.642Z,11.687
2023-10-25T00:36:57.476Z,11.687
2023-10-25T00:39:56.938Z,11.625
2023-10-25T00:42:57.432Z,11.625
2023-10-25T00:45:57.335Z,11.687
2023-10-25T00:48:57.387Z,11.687
2023-10-25T00:51:58.301Z,11.687
2023-10-25T00:54:57.762Z,11.687
2023-10-25T00:57:57.910Z,11.687
2023-10-25T01:00:57.994Z,11.687
2023-10-25T01:03:57.222Z,11.625
2023-10-25T01:06:56.907Z,11.625
2023-10-25T01:09:58.052Z,11.625
2023-10-25T01:12:57.031Z,11.625
2023-10-25T01:15:57.373Z,11.625
2023-10-25T01:18:57.766Z,11.625
2023-10-25T01:21:57.899Z,11.625
2023-10-25T01:24:57.708Z,11.625
2023-10-25T01:27:57.178Z,11.625
2023-10-25T01:30:57.222Z,11.625
2023-10-25T01:33:57.905Z,11.625
2023-10-25T01:36:57.545Z,11.625
2023-10-25T01:39:57.427Z,11.625
2023-10-25T01:42:57.640Z,11.625
2023-10-25T01:45:57.987Z,11.625
2023-10-25T01:48:57.251Z,11.625
2023-10-25T01:51:58.146Z,11.625
2023-10-25T01:54:57.443Z,11.625
2023-10-25T01:57:57.427Z,11.625
2023-10-25T02:00:58.292Z,11.625
2023-10-25T02:03:56.600Z,11.625
2023-10-25T02:06:57.676Z,11.625
2023-10-25T02:09:58.307Z,11.625
2023-10-25T02:12:57.997Z,11.562
2023-10-25T02:15:57.250Z,11.562
2023-10-25T02:18:57.231Z,11.562
2023-10-25T02:21:57.901Z,11.562
2023-10-25T02:24:57.907Z,11.562
2023-10-25T02:27:57.058Z,11.562
2023-10-25T02:30:57.165Z,11.562
2023-10-25T02:33:57.452Z,11.562
2023-10-25T02:36:57.040Z,11.562
2023-10-25T02:39:58.023Z,11.562
2023-10-25T02:42:57.493Z,11.562
2023-10-25T02:45:57.461Z,11.562
2023-10-25T02:48:57.631Z,11.562
2023-10-25T02:51:58.015Z,11.562
2023-10-25T02:54:57.096Z,11.562
2023-10-25T02:57:57.407Z,11.562
2023-10-25T03:00:58.777Z,11.562
2023-10-25T03:03:56.517Z,11.562
2023-10-25T03:06:56.981Z,11.562
2023-10-25T03:09:58.159Z,11.562
2023-10-25T03:12:57.375Z,11.562
2023-10-25T03:15:57.762Z,11.562
2023-10-25T03:18:57.521Z,11.562
2023-10-25T03:21:57.502Z,11.562
2023-10-25T03:24:57.457Z,11.5
2023-10-25T03:27:57.828Z,11.5
2023-10-25T03:30:57.066Z,11.5
2023-10-25T03:33:57.265Z,11.5
2023-10-25T03:36:56.962Z,11.5
2023-10-25T03:39:58.153Z,11.5
2023-10-25T03:42:56.936Z,11.5
2023-10-25T03:45:57.574Z,11.5
2023-10-25T03:48:57.692Z,11.5
2023-10-25T03:51:57.579Z,11.5
2023-10-25T03:54:56.807Z,11.5
2023-10-25T03:57:57.434Z,11.5
2023-10-25T04:00:58.464Z,11.5
2023-10-25T04:03:57.737Z,11.5
2023-10-25T04:06:57.492Z,11.5
2023-10-25T04:09:57.984Z,11.5
2023-10-25T04:12:56.841Z,11.5
2023-10-25T04:15:58.331Z,11.5
2023-10-25T04:18:57.426Z,11.5
2023-10-25T04:21:57.555Z,11.5
2023-10-25T04:24:57.711Z,11.5
2023-10-25T04:27:57.480Z,11.5
2023-10-25T04:30:57.568Z,11.437
2023-10-25T04:33:57.982Z,11.437
2023-10-25T04:36:57.167Z,11.437
2023-10-25T04:39:57.394Z,11.437
2023-10-25T04:42:57.956Z,11.437
2023-10-25T04:45:57.881Z,11.437
2023-10-25T04:48:57.687Z,11.437
2023-10-25T04:51:57.632Z,11.437
2023-10-25T04:54:57.048Z,11.437
2023-10-25T04:57:57.440Z,11.437
2023-10-25T05:00:58.087Z,11.437
2023-10-25T05:03:57.316Z,11.437
2023-10-25T05:06:57.654Z,11.437
2023-10-25T05:09:58.658Z,11.437
2023-10-25T05:12:57.192Z,11.375
2023-10-25T05:15:57.723Z,11.375
2023-10-25T05:18:57.423Z,11.375
2023-10-25T05:21:57.946Z,11.437
2023-10-25T05:24:57.272Z,11.375
2023-10-25T05:27:58.194Z,11.375
2023-10-25T05:30:58.485Z,11.375
2023-10-25T05:33:59.297Z,11.375
2023-10-25T05:36:57.887Z,11.375
2023-10-25T05:39:57.997Z,11.375
2023-10-25T05:42:57.943Z,11.375
2023-10-25T05:45:58.297Z,11.375
2023-10-25T05:48:58.132Z,11.375
2023-10-25T05:51:57.511Z,11.375
2023-10-25T05:54:58.083Z,11.375
2023-10-25T05:57:57.808Z,11.375
2023-10-25T06:00:57.825Z,11.375
2023-10-25T06:03:57.504Z,11.375
2023-10-25T06:06:57.104Z,11.312
2023-10-25T06:09:57.881Z,11.312
2023-10-25T06:12:57.662Z,11.312
2023-10-25T06:15:57.662Z,11.312
2023-10-25T06:18:57.963Z,11.312
2023-10-25T06:21:57.171Z,11.312
2023-10-25T06:24:57.289Z,11.312
2023-10-25T06:27:58.476Z,11.312
2023-10-25T06:30:58.479Z,11.312
2023-10-25T06:33:57.824Z,11.312
2023-10-25T06:36:57.139Z,11.312
2023-10-25T06:39:57.790Z,11.312
2023-10-25T06:42:57.764Z,11.312
2023-10-25T06:45:58.228Z,11.312
2023-10-25T06:48:57.978Z,11.312
2023-10-25T06:51:57.319Z,11.312
2023-10-25T06:54:57.488Z,11.312
2023-10-25T06:57:57.758Z,11.25
2023-10-25T07:00:57.390Z,11.25
2023-10-25T07:03:57.545Z,11.25
2023-10-25T07:06:57.602Z,11.25
2023-10-25T07:09:57.453Z,11.25
2023-10-25T07:12:57.818Z,11.25
2023-10-25T07:15:58.248Z,11.25
2023-10-25T07:18:57.475Z,11.25
2023-10-25T07:21:57.043Z,11.25
2023-10-25T07:24:57.548Z,11.25
2023-10-25T07:27:58.001Z,11.25
2023-10-25T07:30:57.777Z,11.25
2023-10-25T07:33:57.722Z,11.25
2023-10-25T07:36:57.342Z,11.25
2023-10-25T07:39:57.852Z,11.25
2023-10-25T07:42:57.084Z,11.25
2023-10-25T07:45:57.166Z,11.187
2023-10-25T07:48:57.533Z,11.187
2023-10-25T07:51:57.605Z,11.187
2023-10-25T07:54:57.248Z,11.187
2023-10-25T08:00:57.991Z,11.187
2023-10-25T08:03:57.324Z,11.187
2023-10-25T08:06:59.246Z,11.187
2023-10-25T08:09:58.080Z,11.187
2023-10-25T08:12:57.425Z,11.187
2023-10-25T08:15:57.364Z,11.187
2023-10-25T08:18:57.159Z,11.187
2023-10-25T08:21:57.401Z,11.187
2023-10-25T08:24:57.533Z,11.187
2023-10-25T08:27:57.859Z,11.187
2023-10-25T08:30:58.025Z,11.187
2023-10-25T08:33:57.573Z,11.187
2023-10-25T08:36:57.055Z,11.187
2023-10-25T08:39:57.161Z,11.187
2023-10-25T08:42:57.829Z,11.125
2023-10-25T08:45:57.588Z,11.125
2023-10-25T08:48:57.825Z,11.125
2023-10-25T08:51:57.380Z,11.125
2023-10-25T08:54:56.612Z,11.125
2023-10-25T08:57:57.692Z,11.125
2023-10-25T09:00:58.158Z,11.125
2023-10-25T09:03:57.480Z,11.125
2023-10-25T09:06:56.633Z,11.125
2023-10-25T09:09:58.159Z,11.125
2023-10-25T09:12:57.282Z,11.125
2023-10-25T09:15:57.435Z,11.125
2023-10-25T09:18:57.064Z,11.125
2023-10-25T09:21:57.463Z,11.125
2023-10-25T09:24:57.511Z,11.125
2023-10-25T09:27:57.177Z,11.125
2023-10-25T09:30:57.492Z,11.125
2023-10-25T09:33:57.010Z,11.125
2023-10-25T09:36:56.991Z,11.125
2023-10-25T09:39:57.980Z,11.125
2023-10-25T09:42:56.727Z,11.125
2023-10-25T09:45:57.839Z,11.125
2023-10-25T09:48:57.658Z,11.125
2023-10-25T09:51:57.836Z,11.125
2023-10-25T09:54:57.865Z,11.125
2023-10-25T09:57:57.913Z,11.125
2023-10-25T10:00:57.800Z,11.125
2023-10-25T10:03:57.741Z,11.125
2023-10-25T10:06:57.303Z,11.125
2023-10-25T10:09:58.132Z,11.125
2023-10-25T10:12:57.310Z,11.125
2023-10-25T10:15:57.431Z,11.125
2023-10-25T10:18:57.042Z,11.125
2023-10-25T10:21:57.005Z,11.125
2023-10-25T10:24:57.178Z,11.125
2023-10-25T10:27:57.897Z,11.125
2023-10-25T10:30:58.130Z,11.125
2023-10-25T10:33:57.097Z,11.125
2023-10-25T10:36:57.682Z,11.125
2023-10-25T10:40:00.164Z,11.125
2023-10-25T10:42:57.724Z,11.125
2023-10-25T10:46:00.157Z,11.187
2023-10-25T10:48:57.029Z,11.187
2023-10-25T10:51:57.492Z,11.125
2023-10-25T10:54:57.847Z,11.125
2023-10-25T10:58:06.819Z,11.187
2023-10-25T11:00:58.478Z,11.125
2023-10-25T11:04:16.034Z,11.187
2023-10-25T11:06:57.193Z,11.187
2023-10-25T11:09:57.115Z,11.187
2023-10-25T11:12:57.098Z,11.187
2023-10-25T11:15:57.449Z,11.187
2023-10-25T11:18:57.264Z,11.187
2023-10-25T11:21:57.590Z,11.187
2023-10-25T11:24:57.547Z,11.187
2023-10-25T11:27:57.523Z,11.187
2023-10-25T11:30:57.483Z,11.187
2023-10-25T11:33:57.764Z,11.187
2023-10-25T11:36:56.690Z,11.187
2023-10-25T11:39:57.683Z,11.187
2023-10-25T11:42:56.814Z,11.187
2023-10-25T11:45:56.972Z,11.187
2023-10-25T11:48:57.430Z,11.187
2023-10-25T11:51:57.143Z,11.25
2023-10-25T11:54:57.013Z,11.25
2023-10-25T11:57:57.061Z,11.25
2023-10-25T12:00:57.993Z,11.25
2023-10-25T12:03:57.109Z,11.25
2023-10-25T12:06:57.960Z,11.25
2023-10-25T12:09:57.913Z,11.25
2023-10-25T12:12:57.668Z,11.25
2023-10-25T12:15:58.205Z,11.25
2023-10-25T12:18:57.915Z,11.25
2023-10-25T12:21:57.628Z,11.25
2023-10-25T12:24:57.592Z,11.25
2023-10-25T12:27:57.069Z,11.25
2023-10-25T12:30:59.607Z,11.25
2023-10-25T12:33:57.379Z,11.25
2023-10-25T12:36:57.251Z,11.25
2023-10-25T12:39:57.507Z,11.25
2023-10-25T12:42:57.375Z,11.25
2023-10-25T12:45:57.597Z,11.312
2023-10-25T12:48:57.384Z,11.25
2023-10-25T12:51:57.495Z,11.25
2023-10-25T12:54:57.175Z,11.312
2023-10-25T12:57:57.314Z,11.312
2023-10-25T13:00:58.334Z,11.312
2023-10-25T13:03:57.002Z,11.312
2023-10-25T13:06:57.557Z,11.312
2023-10-25T13:09:57.420Z,11.312
2023-10-25T13:12:57.328Z,11.312
2023-10-25T13:15:57.128Z,11.312
2023-10-25T13:18:57.543Z,11.312
2023-10-25T13:21:57.619Z,11.312
2023-10-25T13:24:57.574Z,11.312
2023-10-25T13:27:57.752Z,11.312
2023-10-25T13:30:57.671Z,11.312
2023-10-25T13:33:57.556Z,11.312
2023-10-25T13:36:57.302Z,11.312
2023-10-25T13:39:57.511Z,11.312
2023-10-25T13:42:56.883Z,11.312
2023-10-25T13:45:57.882Z,11.312
2023-10-25T13:48:57.772Z,11.312
2023-10-25T13:51:57.882Z,11.312
2023-10-25T13:54:57.465Z,11.312
2023-10-25T14:00:58.312Z,11.375
2023-10-25T14:03:57.424Z,11.375
2023-10-25T14:06:57.300Z,11.375
2023-10-25T14:09:58.276Z,11.375
2023-10-25T14:12:57.658Z,11.375
2023-10-25T14:15:57.634Z,11.375
2023-10-25T14:18:57.548Z,11.375
2023-10-25T14:21:57.713Z,11.375
2023-10-25T14:24:57.348Z,11.375
2023-10-25T14:27:57.809Z,11.375
2023-10-25T14:30:58.116Z,11.375
2023-10-25T14:33:57.023Z,11.375
2023-10-25T14:36:57.338Z,11.375
2023-10-25T14:39:57.377Z,11.375
2023-10-25T14:42:57.052Z,11.375
2023-10-25T14:45:57.385Z,11.375
2023-10-25T14:48:57.806Z,11.375
2023-10-25T14:51:57.549Z,11.375
2023-10-25T14:54:57.658Z,11.375
2023-10-25T14:57:57.646Z,11.375
2023-10-25T15:00:58.050Z,11.375
2023-10-25T15:03:57.802Z,11.375
2023-10-25T15:06:56.879Z,11.375
2023-10-25T15:09:57.360Z,11.437
2023-10-25T15:12:58.153Z,11.437
2023-10-25T15:15:57.280Z,11.437
2023-10-25T15:18:57.372Z,11.437
2023-10-25T15:21:57.626Z,11.437
2023-10-25T15:24:57.353Z,11.437
2023-10-25T15:27:58.390Z,11.437
2023-10-25T15:30:58.233Z,11.437
2023-10-25T15:33:57.661Z,11.437
2023-10-25T15:36:57.972Z,11.437
2023-10-25T15:40:11.797Z,11.437
2023-10-25T15:42:57.665Z,11.437
2023-10-25T15:46:00.679Z,11.437
2023-10-25T15:48:57.823Z,11.437
2023-10-25T15:51:58.731Z,11.437
2023-10-25T15:54:57.712Z,11.437
2023-10-25T15:57:57.552Z,11.437
2023-10-25T16:03:57.327Z,11.437
2023-10-25T16:06:57.092Z,11.437
2023-10-25T16:09:57.492Z,11.437
2023-10-25T16:12:57.930Z,11.437
2023-10-25T16:15:57.890Z,11.437
2023-10-25T16:18:58.173Z,11.437
2023-10-25T16:21:58.368Z,11.437
2023-10-25T16:24:58.463Z,11.437
2023-10-25T16:27:57.909Z,11.437
2023-10-25T16:30:58.809Z,11.437
2023-10-25T16:33:57.723Z,11.437
2023-10-25T16:37:04.817Z,11.437
2023-10-25T16:39:58.174Z,11.437
2023-10-25T16:42:58.189Z,11.437
2023-10-25T16:45:58.869Z,11.5
2023-10-25T16:48:57.964Z,11.5
2023-10-25T16:51:57.402Z,11.437
2023-10-25T16:54:57.976Z,11.437
2023-10-25T16:57:57.741Z,11.437
2023-10-25T17:00:58.448Z,11.437
2023-10-25T17:03:57.959Z,11.5
2023-10-25T17:06:57.730Z,11.5
2023-10-25T17:09:58.109Z,11.5
2023-10-25T17:12:57.516Z,11.5
2023-10-25T17:15:57.186Z,11.5
2023-10-25T17:18:56.822Z,11.437
2023-10-25T17:21:57.628Z,11.437
2023-10-25T17:24:58.179Z,11.5
2023-10-25T17:27:57.582Z,11.5
2023-10-25T17:30:58.533Z,11.5
2023-10-25T17:33:57.458Z,11.5
2023-10-25T17:36:57.960Z,11.437
2023-10-25T17:39:57.824Z,11.5
2023-10-25T17:42:57.964Z,11.5
2023-10-25T17:46:10.645Z,11.5
2023-10-25T17:48:57.438Z,11.5
2023-10-25T17:51:58.449Z,11.5
2023-10-25T17:54:57.500Z,11.5
2023-10-25T17:57:58.350Z,11.5
2023-10-25T18:00:58.608Z,11.5
2023-10-25T18:03:57.285Z,11.5
2023-10-25T18:09:57.424Z,11.5
2023-10-25T18:12:57.615Z,11.5
2023-10-25T18:15:58.204Z,11.5
2023-10-25T18:18:57.295Z,11.5
2023-10-25T18:21:58.009Z,11.5
2023-10-25T18:24:57.588Z,11.5
2023-10-25T18:27:57.741Z,11.5
2023-10-25T18:32:00.104Z,11.437
2023-10-25T18:33:57.825Z,11.5
2023-10-25T18:36:57.312Z,11.5
2023-10-25T18:39:58.000Z,11.5
2023-10-25T18:42:58.216Z,11.5
2023-10-25T18:45:58.045Z,11.5
2023-10-25T18:48:57.355Z,11.437
2023-10-25T18:51:58.070Z,11.437
2023-10-25T18:54:57.333Z,11.437
2023-10-25T18:57:57.272Z,11.437
2023-10-25T19:01:26.545Z,11.437
2023-10-25T19:03:58.281Z,11.437
2023-10-25T19:06:57.436Z,11.5
2023-10-25T19:09:58.116Z,11.5
2023-10-25T19:12:56.801Z,11.437
2023-10-25T19:15:58.463Z,11.437
2023-10-25T19:18:57.965Z,11.437
2023-10-25T19:21:56.919Z,11.437
2023-10-25T19:24:57.543Z,11.437
2023-10-25T19:27:57.270Z,11.437
2023-10-25T19:30:58.402Z,11.437
2023-10-25T19:33:57.029Z,11.437
2023-10-25T19:36:58.116Z,11.437
2023-10-25T19:39:57.802Z,11.437
2023-10-25T19:42:57.120Z,11.437
2023-10-25T19:45:57.683Z,11.437
2023-10-25T19:48:57.698Z,11.437
2023-10-25T19:51:57.748Z,11.437
2023-10-25T19:54:57.220Z,11.437
2023-10-25T19:57:58.196Z,11.437
2023-10-25T20:00:57.865Z,11.437
2023-10-25T20:03:58.053Z,11.437
2023-10-25T20:06:57.649Z,11.437
2023-10-25T20:09:57.311Z,11.437
2023-10-25T20:12:57.695Z,11.437
2023-10-25T20:15:57.882Z,11.437
2023-10-25T20:18:57.547Z,11.437
2023-10-25T20:21:57.669Z,11.437
2023-10-25T20:24:57.228Z,11.437
2023-10-25T20:27:57.329Z,11.437
2023-10-25T20:30:57.982Z,11.437
2023-10-25T20:33:57.321Z,11.437
2023-10-25T20:36:57.832Z,11.375
2023-10-25T20:39:57.689Z,11.375
2023-10-25T20:42:58.243Z,11.375
2023-10-25T20:45:57.806Z,11.375
2023-10-25T20:48:56.965Z,11.375
2023-10-25T20:51:57.678Z,11.375
2023-10-25T20:54:57.208Z,11.375
2023-10-25T20:57:57.511Z,11.375
2023-10-25T21:00:57.583Z,11.375
2023-10-25T21:03:57.708Z,11.375
2023-10-25T21:06:57.953Z,11.375
2023-10-25T21:09:57.802Z,11.375
2023-10-25T21:12:57.914Z,11.375
2023-10-25T21:15:58.100Z,11.375
2023-10-25T21:18:57.480Z,11.375
2023-10-25T21:21:57.959Z,11.375
2023-10-25T21:24:57.297Z,11.375
2023-10-25T21:27:57.328Z,11.375
2023-10-25T21:30:58.242Z,11.375
2023-10-25T21:33:57.283Z,11.375
2023-10-25T21:36:58.071Z,11.375
2023-10-25T21:39:58.056Z,11.375
2023-10-25T21:42:57.043Z,11.375
2023-10-25T21:45:57.979Z,11.375
2023-10-25T21:48:57.452Z,11.375
2023-10-25T21:51:57.884Z,11.375
2023-10-25T21:54:57.152Z,11.375
2023-10-25T21:59:44.583Z,11.375
2023-10-25T22:00:57.966Z,11.375
2023-10-25T22:03:57.284Z,11.312
2023-10-25T22:06:57.605Z,11.375
2023-10-25T22:09:57.443Z,11.312
2023-10-25T22:12:57.501Z,11.312
2023-10-25T22:15:57.779Z,11.312
2023-10-25T22:18:57.471Z,11.312
2023-10-25T22:21:57.200Z,11.312
2023-10-25T22:24:57.269Z,11.312
2023-10-25T22:27:57.584Z,11.312
2023-10-25T22:30:58.060Z,11.312
2023-10-25T22:33:56.895Z,11.312
2023-10-25T22:36:57.070Z,11.312
2023-10-25T22:39:57.476Z,11.312
2023-10-25T22:42:57.968Z,11.312
2023-10-25T22:45:57.598Z,11.312
2023-10-25T22:48:57.393Z,11.312
2023-10-25T22:51:57.594Z,11.312
2023-10-25T22:54:57.053Z,11.312
2023-10-25T22:57:57.042Z,11.312
2023-10-25T23:00:57.464Z,11.312
2023-10-25T23:03:56.994Z,11.312
2023-10-25T23:06:57.689Z,11.312
2023-10-25T23:09:57.322Z,11.312
2023-10-25T23:12:57.163Z,11.312
2023-10-25T23:15:57.535Z,11.312
2023-10-25T23:18:56.953Z,11.312
2023-10-25T23:21:56.907Z,11.25
2023-10-25T23:24:57.579Z,11.312
2023-10-25T23:27:57.705Z,11.312
2023-10-25T23:30:57.140Z,11.312
2023-10-25T23:33:57.670Z,11.312
2023-10-25T23:36:58.064Z,11.312
2023-10-25T23:39:57.434Z,11.25
2023-10-25T23:42:57.396Z,11.312
2023-10-25T23:45:57.370Z,11.312
2023-10-25T23:48:56.834Z,11.312
2023-10-25T23:51:57.413Z,11.312
2023-10-25T23:54:57.097Z,11.25
2023-10-25T23:57:57.665Z,11.25
